Time,TemperatureF,DewpointF,PressureIn,WindDirection,WindDirectionDegrees,WindSpeedMPH,WindSpeedGustMPH,Humidity,HourlyPrecipIn,Conditions,Clouds,dailyrainin,SoftwareType,DateUTC
2013-02-14 00:05:00,39.4,22.0,30.24,NNE,31,6.0,11.0,49,0.00,,,0.00,weatherlink.com 1.10,2013-02-14 08:05:00,
2013-02-14 00:20:00,41.5,21.0,30.23,NNE,33,7.0,12.0,45,0.00,,,0.00,weatherlink.com 1.10,2013-02-14 08:20:00,
2013-02-14 00:35:00,41.9,22.0,30.23,NE,36,6.0,12.0,45,0.00,,,0.00,weatherlink.com 1.10,2013-02-14 08:35:00,
2013-02-14 00:50:00,41.4,22.0,30.23,NE,36,2.0,7.0,46,0.00,,,0.00,weatherlink.com 1.10,2013-02-14 08:50:00,
2013-02-14 01:05:00,40.9,22.0,30.23,NNE,22,6.0,11.0,47,0.00,,,0.00,weatherlink.com 1.10,2013-02-14 09:05:00,
2013-02-14 01:20:00,41.6,22.0,30.23,NE,38,5.0,10.0,46,0.00,,,0.00,weatherlink.com 1.10,2013-02-14 09:20:00,
2013-02-14 01:35:00,40.7,22.0,30.22,NNE,26,5.0,7.0,47,0.00,,,0.00,weatherlink.com 1.10,2013-02-14 09:35:00,
2013-02-14 01:50:00,38.7,21.0,30.22,NNE,25,6.0,8.0,50,0.00,,,0.00,weatherlink.com 1.10,2013-02-14 09:50:00,
2013-02-14 02:06:00,39.2,21.0,30.21,NNE,32,6.0,10.0,49,0.00,,,0.00,weatherlink.com 1.10,2013-02-14 10:06:00,
2013-02-14 02:21:00,40.9,21.0,30.21,NNE,17,9.0,11.0,46,0.00,,,0.00,weatherlink.com 1.10,2013-02-14 10:21:00,
2013-02-14 02:36:00,40.9,21.0,30.20,NNE,15,3.0,11.0,46,0.00,,,0.00,weatherlink.com 1.10,2013-02-14 10:36:00,
2013-02-14 02:51:00,40.1,21.0,30.20,NNE,27,6.0,8.0,47,0.00,,,0.00,weatherlink.com 1.10,2013-02-14 10:51:00,
2013-02-14 03:06:00,40.4,21.0,30.19,NNE,32,7.0,10.0,46,0.00,,,0.00,weatherlink.com 1.10,2013-02-14 11:06:00,
2013-02-14 03:21:00,40.7,21.0,30.18,NE,39,5.0,11.0,46,0.00,,,0.00,weatherlink.com 1.10,2013-02-14 11:21:00,
2013-02-14 03:36:00,40.9,21.0,30.18,NE,34,7.0,13.0,45,0.00,,,0.00,weatherlink.com 1.10,2013-02-14 11:36:00,
2013-02-14 03:51:00,41.0,21.0,30.18,NE,40,7.0,13.0,45,0.00,,,0.00,weatherlink.com 1.10,2013-02-14 11:51:00,
2013-02-14 04:06:00,41.0,21.0,30.19,NNE,17,8.0,13.0,45,0.00,,,0.00,weatherlink.com 1.10,2013-02-14 12:06:00,
2013-02-14 04:21:00,41.2,22.0,30.20,NE,38,10.0,14.0,46,0.00,,,0.00,weatherlink.com 1.10,2013-02-14 12:21:00,
2013-02-14 04:36:00,41.5,21.0,30.20,NE,44,7.0,15.0,44,0.00,,,0.00,weatherlink.com 1.10,2013-02-14 12:36:00,
2013-02-14 04:51:00,41.2,21.0,30.20,NNE,33,8.0,12.0,44,0.00,,,0.00,weatherlink.com 1.10,2013-02-14 12:51:00,
2013-02-14 05:06:00,40.8,21.0,30.20,NE,38,6.0,12.0,45,0.00,,,0.00,weatherlink.com 1.10,2013-02-14 13:06:00,
2013-02-14 05:21:00,40.6,21.0,30.20,North,5,5.0,12.0,45,0.00,,,0.00,weatherlink.com 1.10,2013-02-14 13:21:00,
2013-02-14 05:36:00,40.7,21.0,30.20,NE,37,5.0,14.0,45,0.00,,,0.00,weatherlink.com 1.10,2013-02-14 13:36:00,
2013-02-14 05:51:00,40.5,21.0,30.20,NE,42,5.0,15.0,45,0.00,,,0.00,weatherlink.com 1.10,2013-02-14 13:51:00,
2013-02-14 06:06:00,40.7,21.0,30.20,North,11,10.0,15.0,46,0.00,,,0.00,weatherlink.com 1.10,2013-02-14 14:06:00,
2013-02-14 06:21:00,41.2,22.0,30.20,NE,47,3.0,17.0,46,0.00,,,0.00,weatherlink.com 1.10,2013-02-14 14:21:00,
2013-02-14 06:36:00,41.2,22.0,30.19,NE,37,4.0,18.0,46,0.00,,,0.00,weatherlink.com 1.10,2013-02-14 14:36:00,
2013-02-14 06:51:00,41.2,22.0,30.19,North,5,7.0,16.0,46,0.00,,,0.00,weatherlink.com 1.10,2013-02-14 14:51:00,
2013-02-14 07:06:00,41.4,22.0,30.20,NE,50,8.0,12.0,47,0.00,,,0.00,weatherlink.com 1.10,2013-02-14 15:06:00,
2013-02-14 07:21:00,42.5,23.0,30.20,NNE,27,7.0,15.0,46,0.00,,,0.00,weatherlink.com 1.10,2013-02-14 15:21:00,
2013-02-14 07:36:00,43.4,23.0,30.20,NE,38,11.0,17.0,44,0.00,,,0.00,weatherlink.com 1.10,2013-02-14 15:36:00,
2013-02-14 07:51:00,44.9,23.0,30.21,NE,50,6.0,18.0,42,0.00,,,0.00,weatherlink.com 1.10,2013-02-14 15:51:00,
2013-02-14 08:06:00,46.0,24.0,30.21,NNE,29,9.0,15.0,42,0.00,,,0.00,weatherlink.com 1.10,2013-02-14 16:06:00,
2013-02-14 08:21:00,46.9,24.0,30.21,NNE,14,8.0,19.0,41,0.00,,,0.00,weatherlink.com 1.10,2013-02-14 16:21:00,
2013-02-14 08:36:00,47.2,24.0,30.23,NE,48,5.0,15.0,40,0.00,,,0.00,weatherlink.com 1.10,2013-02-14 16:36:00,
2013-02-14 08:51:00,48.8,24.0,30.24,ENE,61,10.0,14.0,38,0.00,,,0.00,weatherlink.com 1.10,2013-02-14 16:51:00,
2013-02-14 09:06:00,49.4,25.0,30.25,NNE,16,7.0,13.0,38,0.00,,,0.00,weatherlink.com 1.10,2013-02-14 17:06:00,
2013-02-14 09:21:00,49.8,24.0,30.25,ENE,78,2.0,10.0,37,0.00,,,0.00,weatherlink.com 1.10,2013-02-14 17:21:00,
2013-02-14 09:36:00,50.3,25.0,30.27,NE,55,4.0,10.0,37,0.00,,,0.00,weatherlink.com 1.10,2013-02-14 17:36:00,
2013-02-14 09:51:00,50.3,25.0,30.25,East,79,10.0,16.0,38,0.00,,,0.00,weatherlink.com 1.10,2013-02-14 17:51:00,
2013-02-14 10:06:00,51.0,25.0,30.24,ENE,73,8.0,13.0,36,0.00,,,0.00,weatherlink.com 1.10,2013-02-14 18:06:00,
2013-02-14 10:21:00,50.4,24.0,30.23,ENE,61,5.0,16.0,35,0.00,,,0.00,weatherlink.com 1.10,2013-02-14 18:21:00,
2013-02-14 10:36:00,50.7,25.0,30.24,East,83,5.0,16.0,37,0.00,,,0.00,weatherlink.com 1.10,2013-02-14 18:36:00,
2013-02-14 10:51:00,51.0,26.0,30.23,NE,55,4.0,12.0,38,0.00,,,0.00,weatherlink.com 1.10,2013-02-14 18:51:00,
2013-02-14 11:06:00,51.4,25.0,30.21,East,87,7.0,14.0,36,0.00,,,0.00,weatherlink.com 1.10,2013-02-14 19:06:00,
2013-02-14 11:21:00,51.9,24.0,30.21,East,94,7.0,13.0,34,0.00,,,0.00,weatherlink.com 1.10,2013-02-14 19:21:00,
2013-02-14 11:36:00,51.8,25.0,30.21,SE,139,0.0,13.0,36,0.00,,,0.00,weatherlink.com 1.10,2013-02-14 19:36:00,
2013-02-14 11:51:00,52.8,26.0,30.21,NNE,24,7.0,10.0,35,0.00,,,0.00,weatherlink.com 1.10,2013-02-14 19:51:00,
2013-02-14 12:06:00,51.8,25.0,30.20,East,82,10.0,21.0,36,0.00,,,0.00,weatherlink.com 1.10,2013-02-14 20:06:00,
2013-02-14 12:21:00,51.5,25.0,30.18,NNE,30,9.0,27.0,36,0.00,,,0.00,weatherlink.com 1.10,2013-02-14 20:21:00,
2013-02-14 12:36:00,51.1,25.0,30.18,East,94,7.0,24.0,37,0.00,,,0.00,weatherlink.com 1.10,2013-02-14 20:36:00,
2013-02-14 12:52:00,51.6,25.0,30.17,ENE,78,5.0,18.0,36,0.00,,,0.00,weatherlink.com 1.10,2013-02-14 20:52:00,
2013-02-14 13:07:00,51.1,25.0,30.17,ENE,78,9.0,23.0,37,0.00,,,0.00,weatherlink.com 1.10,2013-02-14 21:07:00,
2013-02-14 13:22:00,51.2,26.0,30.16,NE,41,12.0,22.0,37,0.00,,,0.00,weatherlink.com 1.10,2013-02-14 21:22:00,
2013-02-14 13:37:00,51.2,26.0,30.15,North,9,11.0,20.0,37,0.00,,,0.00,weatherlink.com 1.10,2013-02-14 21:37:00,
2013-02-14 13:52:00,50.8,26.0,30.15,NE,48,8.0,21.0,38,0.00,,,0.00,weatherlink.com 1.10,2013-02-14 21:52:00,
2013-02-14 14:07:00,50.8,25.0,30.15,ENE,59,13.0,23.0,36,0.00,,,0.00,weatherlink.com 1.10,2013-02-14 22:07:00,
2013-02-14 14:22:00,50.6,24.0,30.15,NNE,32,10.0,22.0,36,0.00,,,0.00,weatherlink.com 1.10,2013-02-14 22:22:00,
2013-02-14 14:37:00,50.4,25.0,30.15,East,92,16.0,22.0,37,0.00,,,0.00,weatherlink.com 1.10,2013-02-14 22:37:00,
2013-02-14 14:52:00,50.2,25.0,30.15,NNE,24,13.0,17.0,38,0.00,,,0.00,weatherlink.com 1.10,2013-02-14 22:52:00,
2013-02-14 15:07:00,49.6,25.0,30.15,NNE,14,12.0,18.0,38,0.00,,,0.00,weatherlink.com 1.10,2013-02-14 23:07:00,
2013-02-14 15:22:00,48.8,25.0,30.15,NNE,26,3.0,18.0,39,0.00,,,0.00,weatherlink.com 1.10,2013-02-14 23:22:00,
2013-02-14 15:37:00,48.6,24.0,30.16,ENE,67,12.0,20.0,39,0.00,,,0.00,weatherlink.com 1.10,2013-02-14 23:37:00,
2013-02-14 15:52:00,47.8,24.0,30.16,NE,37,11.0,18.0,39,0.00,,,0.00,weatherlink.com 1.10,2013-02-14 23:52:00,
2013-02-14 16:07:00,47.2,24.0,30.16,NE,40,14.0,25.0,40,0.00,,,0.00,weatherlink.com 1.10,2013-02-15 00:07:00,
2013-02-14 16:22:00,46.4,24.0,30.16,NNE,17,10.0,19.0,41,0.00,,,0.00,weatherlink.com 1.10,2013-02-15 00:22:00,
2013-02-14 16:37:00,46.0,23.0,30.17,NNE,22,12.0,17.0,41,0.00,,,0.00,weatherlink.com 1.10,2013-02-15 00:37:00,
2013-02-14 16:52:00,45.5,23.0,30.17,NE,34,3.0,21.0,41,0.00,,,0.00,weatherlink.com 1.10,2013-02-15 00:52:00,
2013-02-14 17:07:00,45.1,23.0,30.18,NE,35,10.0,21.0,41,0.00,,,0.00,weatherlink.com 1.10,2013-02-15 01:07:00,
2013-02-14 17:22:00,44.5,22.0,30.18,ENE,60,5.0,21.0,41,0.00,,,0.00,weatherlink.com 1.10,2013-02-15 01:22:00,
2013-02-14 17:37:00,44.2,22.0,30.18,ENE,68,8.0,21.0,42,0.00,,,0.00,weatherlink.com 1.10,2013-02-15 01:37:00,
2013-02-14 17:52:00,43.9,22.0,30.19,NE,49,8.0,15.0,42,0.00,,,0.00,weatherlink.com 1.10,2013-02-15 01:52:00,
2013-02-14 18:07:00,44.1,22.0,30.19,NNE,16,6.0,20.0,41,0.00,,,0.00,weatherlink.com 1.10,2013-02-15 02:07:00,
2013-02-14 18:22:00,44.4,22.0,30.19,NNE,17,6.0,19.0,41,0.00,,,0.00,weatherlink.com 1.10,2013-02-15 02:22:00,
2013-02-14 18:37:00,44.4,22.0,30.20,North,9,8.0,24.0,41,0.00,,,0.00,weatherlink.com 1.10,2013-02-15 02:37:00,
2013-02-14 18:52:00,44.5,21.0,30.20,NNE,15,7.0,21.0,40,0.00,,,0.00,weatherlink.com 1.10,2013-02-15 02:52:00,
2013-02-14 19:07:00,44.7,21.0,30.20,ESE,109,4.0,28.0,39,0.00,,,0.00,weatherlink.com 1.10,2013-02-15 03:07:00,
2013-02-14 19:22:00,44.6,21.0,30.20,North,5,8.0,23.0,40,0.00,,,0.00,weatherlink.com 1.10,2013-02-15 03:22:00,
2013-02-14 19:37:00,44.6,22.0,30.20,NNE,32,10.0,23.0,41,0.00,,,0.00,weatherlink.com 1.10,2013-02-15 03:37:00,
2013-02-14 19:52:00,44.7,22.0,30.20,North,360,14.0,25.0,41,0.00,,,0.00,weatherlink.com 1.10,2013-02-15 03:52:00,
2013-02-14 20:07:00,44.5,22.0,30.21,NNE,14,8.0,19.0,41,0.00,,,0.00,weatherlink.com 1.10,2013-02-15 04:07:00,
2013-02-14 20:22:00,44.5,21.0,30.20,ENE,70,8.0,25.0,40,0.00,,,0.00,weatherlink.com 1.10,2013-02-15 04:22:00,
2013-02-14 20:37:00,44.5,21.0,30.20,East,90,8.0,24.0,40,0.00,,,0.00,weatherlink.com 1.10,2013-02-15 04:37:00,
2013-02-14 20:52:00,44.3,22.0,30.21,NNE,18,16.0,21.0,41,0.00,,,0.00,weatherlink.com 1.10,2013-02-15 04:52:00,
2013-02-14 21:07:00,44.5,21.0,30.21,NE,40,4.0,25.0,40,0.00,,,0.00,weatherlink.com 1.10,2013-02-15 05:07:00,
2013-02-14 21:22:00,44.1,22.0,30.23,North,5,13.0,17.0,41,0.00,,,0.00,weatherlink.com 1.10,2013-02-15 05:22:00,
2013-02-14 21:37:00,43.9,21.0,30.23,NNE,21,9.0,22.0,41,0.00,,,0.00,weatherlink.com 1.10,2013-02-15 05:37:00,
2013-02-14 21:52:00,43.5,22.0,30.23,NE,50,9.0,19.0,42,0.00,,,0.00,weatherlink.com 1.10,2013-02-15 05:52:00,
2013-02-14 22:07:00,43.0,22.0,30.23,NNE,19,12.0,24.0,43,0.00,,,0.00,weatherlink.com 1.10,2013-02-15 06:07:00,
2013-02-14 22:22:00,42.9,22.0,30.23,NE,37,17.0,23.0,44,0.00,,,0.00,weatherlink.com 1.10,2013-02-15 06:22:00,
2013-02-14 22:37:00,43.1,22.0,30.23,ENE,59,12.0,23.0,43,0.00,,,0.00,weatherlink.com 1.10,2013-02-15 06:37:00,
2013-02-14 22:52:00,43.1,22.0,30.23,NE,52,12.0,25.0,44,0.00,,,0.00,weatherlink.com 1.10,2013-02-15 06:52:00,
2013-02-14 23:07:00,43.2,22.0,30.23,NNE,32,17.0,21.0,43,0.00,,,0.00,weatherlink.com 1.10,2013-02-15 07:07:00,
2013-02-14 23:22:00,42.9,22.0,30.24,NE,34,21.0,21.0,43,0.00,,,0.00,weatherlink.com 1.10,2013-02-15 07:22:00,
2013-02-14 23:37:00,43.0,22.0,30.24,NNW,345,10.0,21.0,43,0.00,,,0.00,weatherlink.com 1.10,2013-02-15 07:37:00,
2013-02-14 23:52:00,42.8,22.0,30.24,NNE,12,12.0,22.0,43,0.00,,,0.00,weatherlink.com 1.10,2013-02-15 07:52:00,